Terminal Aerodrome Forecast
Issued by NWS

Home | Current Version | Previous Version | Text Only | Print | Product List | Glossary On
Versions: 1 2 3 4 5 6 7 8 9 10 11 12
000
FTUS42 KMLB 281120
TAFLEE
TAF
KLEE 281120Z 2812/2912 08006KT P6SM FEW030
     FM281400 08009KT P6SM SCT035
     FM281800 08012G18KT P6SM SCT050
     FM290200 08007KT P6SM FEW030=

USA.gov is the U.S. government's official web portal to all federal, state and local government web resources and services.